Time;durP1;ratioP1;P1;durP2;ratioP2;P2;SDS_P1;SDS_P2;PMS_P1;PMS_P2;Temp;Humidity;BMP_temperature;BMP_pressure;BME280_temperature;BME280_humidity;BME280_pressure;Samples;Min_cycle;Max_cycle;Signal;HPM_P1;HPM_P2
2022/10/10 00:01:26;;;;;;;11.40;8.40;;;;;;;;;;5135136;27;20019;-75
2022/10/10 00:04:12;;;;;;;15.82;8.60;;;;;;;;;;5134967;27;20422;-75
2022/10/10 00:06:57;;;;;;;13.05;8.70;;;;;;;;;;5120455;27;20028;-73
2022/10/10 00:09:43;;;;;;;11.63;8.02;;;;;;;;;;5135313;27;20026;-74
2022/10/10 00:12:28;;;;;;;13.68;8.70;;;;;;;;;;5135303;27;20355;-74
2022/10/10 00:15:15;;;;;;;14.43;8.27;;;;;;;;;;5135245;27;20439;-74
2022/10/10 00:18:01;;;;;;;11.68;7.88;;;;;;;;;;5134809;27;20027;-75
2022/10/10 00:20:48;;;;;;;13.77;8.68;;;;;;;;;;5134263;27;20017;-74
2022/10/10 00:23:35;;;;;;;17.05;8.50;;;;;;;;;;5134689;27;20427;-74
2022/10/10 00:26:20;;;;;;;12.90;7.45;;;;;;;;;;5134567;27;20396;-73
2022/10/10 00:29:06;;;;;;;12.50;7.72;;;;;;;;;;5134811;27;20023;-74
2022/10/10 00:31:51;;;;;;;15.93;8.18;;;;;;;;;;5134381;27;20458;-74
2022/10/10 00:34:37;;;;;;;10.55;7.88;;;;;;;;;;5119719;27;20052;-73
2022/10/10 00:37:23;;;;;;;14.35;7.97;;;;;;;;;;5135030;27;20090;-74
2022/10/10 00:40:10;;;;;;;12.25;8.63;;;;;;;;;;5135241;27;20323;-75
2022/10/10 00:42:55;;;;;;;11.73;8.07;;;;;;;;;;5134634;27;20094;-74
2022/10/10 00:45:42;;;;;;;13.05;8.35;;;;;;;;;;5134682;27;20027;-74
2022/10/10 00:48:30;;;;;;;12.38;9.05;;;;;;;;;;5134283;27;20019;-76
2022/10/10 00:51:17;;;;;;;13.00;8.73;;;;;;;;;;5134158;27;20034;-75
2022/10/10 00:54:04;;;;;;;17.63;9.25;;;;;;;;;;5133604;27;20478;-75
2022/10/10 00:56:55;;;;;;;13.88;9.18;;;;;;;;;;5134913;27;20020;-75
2022/10/10 00:59:42;;;;;;;17.02;10.80;;;;;;;;;;5134103;28;20076;-73
2022/10/10 01:02:27;;;;;;;15.15;9.63;;;;;;;;;;5133919;28;20016;-74
2022/10/10 01:05:13;;;;;;;11.23;8.80;;;;;;;;;;5134231;28;20319;-74
2022/10/10 01:07:59;;;;;;;12.10;8.60;;;;;;;;;;5134088;28;20087;-74
2022/10/10 01:11:04;;;;;;;12.75;9.20;;;;;;;;;;5120535;27;20023;-75
2022/10/10 01:14:05;;;;;;;13.48;9.35;;;;;;;;;;5138228;27;20020;-74
2022/10/10 01:16:50;;;;;;;15.82;8.82;;;;;;;;;;5124000;27;20115;-75
2022/10/10 01:19:42;;;;;;;16.00;9.93;;;;;;;;;;5138579;27;20038;-75
2022/10/10 01:22:27;;;;;;;12.98;9.55;;;;;;;;;;5123387;27;20056;-73
2022/10/10 01:25:26;;;;;;;14.70;9.02;;;;;;;;;;5138148;27;20031;-74
2022/10/10 01:28:23;;;;;;;12.20;8.57;;;;;;;;;;5137636;27;20427;-74
2022/10/10 01:31:11;;;;;;;12.15;8.68;;;;;;;;;;5122645;27;20552;-74
2022/10/10 01:34:16;;;;;;;14.18;8.82;;;;;;;;;;5122856;27;20015;-74
2022/10/10 01:37:04;;;;;;;12.57;8.07;;;;;;;;;;5137367;27;20050;-74
2022/10/10 01:39:59;;;;;;;15.55;8.85;;;;;;;;;;5138097;27;20419;-74
2022/10/10 01:42:44;;;;;;;13.88;8.60;;;;;;;;;;5137407;27;20023;-73
2022/10/10 01:45:30;;;;;;;10.90;8.15;;;;;;;;;;5137851;27;20068;-74
2022/10/10 01:48:17;;;;;;;15.73;8.57;;;;;;;;;;5137446;27;20462;-74
2022/10/10 01:51:12;;;;;;;12.52;7.90;;;;;;;;;;5123880;27;20146;-74
2022/10/10 01:54:00;;;;;;;9.93;7.80;;;;;;;;;;5137544;27;20035;-74
2022/10/10 01:57:04;;;;;;;12.55;7.65;;;;;;;;;;5138214;27;20019;-74
2022/10/10 01:59:58;;;;;;;11.05;7.65;;;;;;;;;;5137365;27;20007;-74
2022/10/10 02:02:53;;;;;;;11.38;7.70;;;;;;;;;;5137347;27;20110;-74
2022/10/10 02:05:52;;;;;;;12.60;7.80;;;;;;;;;;5137374;27;20120;-73
2022/10/10 02:08:49;;;;;;;13.63;8.13;;;;;;;;;;5136501;27;20049;-75
2022/10/10 02:11:36;;;;;;;15.90;8.75;;;;;;;;;;5137359;27;20087;-73
2022/10/10 02:14:25;;;;;;;11.38;8.07;;;;;;;;;;5122805;27;20500;-74
2022/10/10 02:17:12;;;;;;;11.88;7.63;;;;;;;;;;5122148;27;20114;-74
2022/10/10 02:19:59;;;;;;;13.65;8.68;;;;;;;;;;5122897;27;20034;-74
2022/10/10 02:22:45;;;;;;;13.32;8.23;;;;;;;;;;5135857;27;20038;-74
2022/10/10 02:25:35;;;;;;;9.70;7.50;;;;;;;;;;5136453;27;20028;-74
2022/10/10 02:28:42;;;;;;;11.85;8.40;;;;;;;;;;5122832;27;20011;-74
2022/10/10 02:32:00;;;;;;;13.45;8.45;;;;;;;;;;5137556;27;20101;-74
2022/10/10 02:34:50;;;;;;;13.40;7.93;;;;;;;;;;5095532;27;20436;-73
2022/10/10 02:37:36;;;;;;;11.73;8.05;;;;;;;;;;5136747;27;20330;-74
2022/10/10 02:40:24;;;;;;;13.90;8.30;;;;;;;;;;5136379;27;20056;-74
2022/10/10 02:43:11;;;;;;;14.40;8.75;;;;;;;;;;5136196;27;20106;-75
2022/10/10 02:45:57;;;;;;;13.82;8.18;;;;;;;;;;5136227;27;20054;-73
2022/10/10 02:48:43;;;;;;;13.55;9.18;;;;;;;;;;5136362;27;20029;-74
2022/10/10 02:51:29;;;;;;;13.10;8.18;;;;;;;;;;5136576;27;20115;-73
2022/10/10 02:54:14;;;;;;;12.80;8.15;;;;;;;;;;5136252;27;20043;-74
2022/10/10 02:57:00;;;;;;;11.30;8.05;;;;;;;;;;5137159;27;20080;-74
2022/10/10 02:59:45;;;;;;;12.48;7.82;;;;;;;;;;5136476;27;20011;-74
2022/10/10 03:02:31;;;;;;;12.27;8.25;;;;;;;;;;5137075;27;20022;-74
2022/10/10 03:05:17;;;;;;;11.80;8.05;;;;;;;;;;5121758;27;20062;-73
2022/10/10 03:08:02;;;;;;;11.43;8.48;;;;;;;;;;5136588;27;20015;-74
2022/10/10 03:10:55;;;;;;;11.68;8.18;;;;;;;;;;5136839;27;20447;-73
2022/10/10 03:13:41;;;;;;;14.30;8.13;;;;;;;;;;5135981;27;20023;-74
2022/10/10 03:16:26;;;;;;;12.57;7.75;;;;;;;;;;5136580;27;20353;-74
2022/10/10 03:19:12;;;;;;;12.63;7.85;;;;;;;;;;5136234;27;20416;-74
2022/10/10 03:21:58;;;;;;;12.43;7.55;;;;;;;;;;5136200;27;20061;-73
2022/10/10 03:24:43;;;;;;;11.77;7.53;;;;;;;;;;5136797;27;20054;-75
2022/10/10 03:27:29;;;;;;;10.43;7.60;;;;;;;;;;5121250;27;20455;-74
2022/10/10 03:30:14;;;;;;;9.52;7.28;;;;;;;;;;5135903;27;20111;-74
2022/10/10 03:33:00;;;;;;;10.18;6.82;;;;;;;;;;5121918;27;20023;-74
2022/10/10 03:35:45;;;;;;;9.98;6.78;;;;;;;;;;5134354;27;20091;-75
2022/10/10 03:38:31;;;;;;;12.25;7.10;;;;;;;;;;5136800;27;20062;-74
2022/10/10 03:41:17;;;;;;;9.57;6.85;;;;;;;;;;5135689;27;20025;-74
2022/10/10 03:44:02;;;;;;;8.90;6.93;;;;;;;;;;5135485;27;20354;-75
2022/10/10 03:46:48;;;;;;;11.50;7.13;;;;;;;;;;5135668;27;20027;-74
2022/10/10 03:49:33;;;;;;;15.13;7.07;;;;;;;;;;5135373;27;20026;-74
2022/10/10 03:52:20;;;;;;;9.02;6.75;;;;;;;;;;5135423;27;20023;-75
2022/10/10 03:55:06;;;;;;;11.77;7.25;;;;;;;;;;5120610;27;20051;-75
2022/10/10 03:57:52;;;;;;;12.15;6.40;;;;;;;;;;5135016;27;20022;-74
2022/10/10 04:00:38;;;;;;;12.90;7.13;;;;;;;;;;5134892;27;20343;-74
2022/10/10 04:03:24;;;;;;;12.90;6.72;;;;;;;;;;5121223;27;20030;-74
2022/10/10 04:06:09;;;;;;;10.63;6.00;;;;;;;;;;5120903;27;20054;-73
2022/10/10 04:08:55;;;;;;;14.80;6.80;;;;;;;;;;5135757;27;20057;-74
2022/10/10 04:11:42;;;;;;;9.38;6.10;;;;;;;;;;5134575;27;20031;-74
2022/10/10 04:14:27;;;;;;;9.48;5.95;;;;;;;;;;5134470;27;20096;-74
2022/10/10 04:17:15;;;;;;;13.82;6.38;;;;;;;;;;5135130;27;20029;-74
2022/10/10 04:20:01;;;;;;;12.10;6.10;;;;;;;;;;5134614;27;20099;-75
2022/10/10 04:22:46;;;;;;;7.15;6.03;;;;;;;;;;5120141;27;20426;-76
2022/10/10 04:25:32;;;;;;;7.63;5.47;;;;;;;;;;5134742;27;20457;-74
2022/10/10 04:28:18;;;;;;;9.07;5.75;;;;;;;;;;5120675;27;20106;-74
2022/10/10 04:31:04;;;;;;;11.77;6.35;;;;;;;;;;5134392;27;20051;-73
2022/10/10 04:33:51;;;;;;;8.98;5.80;;;;;;;;;;5135123;27;20015;-74
2022/10/10 04:36:37;;;;;;;13.38;7.00;;;;;;;;;;5134395;27;20466;-73
2022/10/10 04:39:22;;;;;;;9.55;6.25;;;;;;;;;;5135196;27;20020;-74
2022/10/10 04:42:08;;;;;;;10.88;5.75;;;;;;;;;;5134590;27;20347;-72
2022/10/10 04:44:53;;;;;;;12.10;5.88;;;;;;;;;;5136163;27;20030;-74
2022/10/10 04:47:39;;;;;;;10.60;5.72;;;;;;;;;;5134160;27;20491;-73
2022/10/10 04:50:25;;;;;;;8.90;5.88;;;;;;;;;;5137390;27;20130;-74
2022/10/10 04:53:10;;;;;;;9.00;6.18;;;;;;;;;;5119824;27;20027;-74
2022/10/10 04:55:56;;;;;;;10.48;6.05;;;;;;;;;;5133363;27;20100;-73
2022/10/10 04:58:42;;;;;;;11.05;5.75;;;;;;;;;;5135196;27;20107;-72
2022/10/10 05:01:28;;;;;;;8.70;5.38;;;;;;;;;;5134321;28;20090;-73
2022/10/10 05:04:14;;;;;;;11.63;5.82;;;;;;;;;;5133849;28;20106;-72
2022/10/10 05:06:59;;;;;;;11.13;5.68;;;;;;;;;;5135135;28;20031;-72
2022/10/10 05:09:45;;;;;;;13.63;5.97;;;;;;;;;;5134738;28;20008;-71
2022/10/10 05:12:31;;;;;;;9.63;5.00;;;;;;;;;;5134835;28;20025;-71
2022/10/10 05:15:17;;;;;;;13.13;6.20;;;;;;;;;;5133855;28;20107;-69
2022/10/10 05:18:03;;;;;;;8.77;5.68;;;;;;;;;;5133768;28;20039;-70
2022/10/10 05:20:48;;;;;;;10.98;5.05;;;;;;;;;;5133872;28;20024;-71
2022/10/10 05:23:34;;;;;;;10.82;5.10;;;;;;;;;;5134529;28;20026;-70
2022/10/10 05:26:20;;;;;;;6.28;4.80;;;;;;;;;;5133314;28;20031;-71
2022/10/10 05:29:06;;;;;;;9.63;4.88;;;;;;;;;;5134450;28;20363;-71
2022/10/10 05:31:51;;;;;;;9.68;4.72;;;;;;;;;;5134508;28;20019;-70
2022/10/10 05:34:37;;;;;;;10.30;4.45;;;;;;;;;;5133912;28;20072;-71
2022/10/10 05:37:22;;;;;;;10.27;5.32;;;;;;;;;;5134028;28;20030;-71
2022/10/10 05:40:08;;;;;;;8.60;4.55;;;;;;;;;;5134044;28;20007;-72
2022/10/10 05:42:54;;;;;;;15.77;6.00;;;;;;;;;;5134302;28;20292;-71
2022/10/10 05:45:39;;;;;;;10.77;5.00;;;;;;;;;;5134684;28;20034;-72
2022/10/10 05:48:25;;;;;;;7.68;4.97;;;;;;;;;;5134271;28;20023;-72
2022/10/10 05:51:12;;;;;;;10.15;4.57;;;;;;;;;;5134028;28;20102;-71
2022/10/10 05:53:58;;;;;;;7.63;4.55;;;;;;;;;;5132878;28;20065;-72
2022/10/10 05:56:43;;;;;;;17.45;4.90;;;;;;;;;;5133555;27;20472;-71
2022/10/10 05:59:29;;;;;;;8.40;4.20;;;;;;;;;;5137407;27;20038;-71
2022/10/10 06:02:14;;;;;;;9.88;4.38;;;;;;;;;;5137838;27;20439;-71
2022/10/10 06:05:00;;;;;;;6.97;4.13;;;;;;;;;;5137541;27;20027;-72
2022/10/10 06:07:45;;;;;;;6.53;3.97;;;;;;;;;;5138109;27;20058;-72
2022/10/10 06:10:35;;;;;;;10.25;4.30;;;;;;;;;;5136220;27;20026;-71
2022/10/10 06:13:21;;;;;;;10.85;3.90;;;;;;;;;;5136948;27;20350;-72
2022/10/10 06:16:06;;;;;;;7.70;3.90;;;;;;;;;;5130633;27;20048;-71
2022/10/10 06:18:52;;;;;;;9.23;4.18;;;;;;;;;;5123726;27;20027;-72
2022/10/10 06:21:38;;;;;;;6.85;3.92;;;;;;;;;;5125223;27;20026;-71
2022/10/10 06:24:24;;;;;;;6.65;3.63;;;;;;;;;;5129217;27;20031;-71
2022/10/10 06:27:09;;;;;;;8.45;4.00;;;;;;;;;;5126610;27;20019;-71
2022/10/10 06:29:55;;;;;;;11.07;4.65;;;;;;;;;;5127710;27;20027;-71
2022/10/10 06:32:41;;;;;;;6.97;4.35;;;;;;;;;;5124889;27;20047;-71
2022/10/10 06:35:26;;;;;;;6.15;3.78;;;;;;;;;;5127649;27;20027;-73
2022/10/10 06:38:13;;;;;;;9.18;3.70;;;;;;;;;;5127032;27;20088;-72
2022/10/10 06:41:03;;;;;;;9.20;3.72;;;;;;;;;;5128375;27;20035;-71
2022/10/10 06:43:50;;;;;;;10.32;3.38;;;;;;;;;;5127567;27;20024;-71
2022/10/10 06:46:36;;;;;;;16.70;3.42;;;;;;;;;;5127608;27;20027;-71
2022/10/10 06:49:22;;;;;;;11.35;3.60;;;;;;;;;;5112921;27;20481;-72
2022/10/10 06:52:07;;;;;;;5.15;3.13;;;;;;;;;;5122936;27;20035;-72
2022/10/10 06:54:53;;;;;;;12.10;3.45;;;;;;;;;;5125810;27;20055;-72
2022/10/10 06:57:38;;;;;;;10.65;3.63;;;;;;;;;;5125539;27;20015;-71
2022/10/10 07:00:24;;;;;;;7.60;2.85;;;;;;;;;;5126426;27;20034;-71
2022/10/10 07:03:11;;;;;;;11.27;2.85;;;;;;;;;;5121657;27;20447;-72
2022/10/10 07:05:58;;;;;;;6.68;2.90;;;;;;;;;;5125938;27;20027;-71
2022/10/10 07:08:44;;;;;;;7.97;2.90;;;;;;;;;;5125290;27;20941;-72
2022/10/10 07:11:29;;;;;;;9.02;3.10;;;;;;;;;;5122106;27;20035;-71
2022/10/10 07:14:15;;;;;;;8.93;3.38;;;;;;;;;;5124213;27;20031;-71
2022/10/10 07:17:02;;;;;;;14.05;3.10;;;;;;;;;;5124789;27;20038;-71
2022/10/10 07:19:47;;;;;;;11.90;3.20;;;;;;;;;;5132327;27;20042;-71
2022/10/10 07:22:33;;;;;;;9.20;3.55;;;;;;;;;;5134885;27;20023;-71
2022/10/10 07:25:18;;;;;;;4.90;2.80;;;;;;;;;;5136248;27;20095;-71
2022/10/10 07:28:05;;;;;;;9.13;2.90;;;;;;;;;;5137593;27;20019;-72
2022/10/10 07:30:58;;;;;;;11.40;3.28;;;;;;;;;;5136423;27;20442;-71
2022/10/10 07:33:44;;;;;;;9.82;2.42;;;;;;;;;;5135695;27;20023;-71
2022/10/10 07:36:30;;;;;;;9.75;2.80;;;;;;;;;;5136523;27;20027;-70
2022/10/10 07:39:19;;;;;;;8.98;2.03;;;;;;;;;;5137549;27;20026;-71
2022/10/10 07:42:05;;;;;;;6.07;2.33;;;;;;;;;;5135697;27;20019;-71
2022/10/10 07:44:50;;;;;;;18.38;2.72;;;;;;;;;;5137525;27;20019;-70
2022/10/10 07:47:36;;;;;;;5.90;2.10;;;;;;;;;;5136126;27;20027;-71
2022/10/10 07:50:24;;;;;;;6.35;2.38;;;;;;;;;;5134619;27;20038;-72
2022/10/10 07:53:10;;;;;;;10.75;2.50;;;;;;;;;;5136105;27;20022;-69
2022/10/10 07:55:56;;;;;;;7.82;2.40;;;;;;;;;;5134155;27;20043;-70
2022/10/10 07:58:41;;;;;;;8.20;2.90;;;;;;;;;;5135040;27;20019;-72
2022/10/10 08:01:27;;;;;;;6.38;2.20;;;;;;;;;;5120671;27;20023;-72
2022/10/10 08:04:13;;;;;;;9.48;2.20;;;;;;;;;;5134815;27;20023;-73
2022/10/10 08:06:58;;;;;;;10.32;2.53;;;;;;;;;;5135205;27;20157;-75
2022/10/10 08:09:44;;;;;;;4.50;2.00;;;;;;;;;;5134094;27;20452;-73
2022/10/10 08:12:29;;;;;;;7.60;2.30;;;;;;;;;;5136383;27;20454;-73
2022/10/10 08:15:15;;;;;;;6.15;2.75;;;;;;;;;;5135558;27;20023;-74
2022/10/10 08:18:00;;;;;;;5.03;2.50;;;;;;;;;;5120372;27;20011;-76
2022/10/10 08:20:46;;;;;;;5.90;3.20;;;;;;;;;;5134944;27;20335;-72
2022/10/10 08:23:32;;;;;;;6.05;2.83;;;;;;;;;;5134343;27;20015;-71
2022/10/10 08:26:18;;;;;;;9.32;2.47;;;;;;;;;;5134149;27;20019;-71
2022/10/10 08:29:04;;;;;;;6.78;2.88;;;;;;;;;;5134954;27;20023;-73
2022/10/10 08:31:50;;;;;;;5.05;2.00;;;;;;;;;;5135141;27;20101;-71
2022/10/10 08:34:35;;;;;;;11.35;4.82;;;;;;;;;;5133815;27;20431;-72
2022/10/10 08:37:21;;;;;;;58.78;27.35;;;;;;;;;;5135220;27;20071;-72
2022/10/10 08:40:07;;;;;;;11.23;4.85;;;;;;;;;;5134515;27;20011;-71
2022/10/10 08:42:53;;;;;;;10.07;4.20;;;;;;;;;;5133691;27;20069;-72
2022/10/10 08:45:39;;;;;;;6.65;2.47;;;;;;;;;;5133588;27;20087;-72
2022/10/10 08:48:26;;;;;;;11.02;2.70;;;;;;;;;;5135171;27;20099;-71
2022/10/10 08:51:25;;;;;;;9.00;3.10;;;;;;;;;;5133722;27;20081;-71
2022/10/10 08:54:12;;;;;;;3.85;2.20;;;;;;;;;;5119573;27;20470;-72
2022/10/10 08:56:59;;;;;;;5.85;2.20;;;;;;;;;;5133596;27;20023;-73
2022/10/10 08:59:45;;;;;;;3.78;1.80;;;;;;;;;;5133955;27;20057;-72
2022/10/10 09:02:43;;;;;;;4.95;2.10;;;;;;;;;;5134660;28;20058;-71
2022/10/10 09:05:31;;;;;;;5.15;2.38;;;;;;;;;;5119619;28;20343;-72
2022/10/10 09:08:23;;;;;;;5.40;2.17;;;;;;;;;;5119706;28;20016;-71
2022/10/10 09:11:12;;;;;;;4.85;2.20;;;;;;;;;;5119476;28;20022;-73
2022/10/10 09:14:11;;;;;;;4.32;2.40;;;;;;;;;;5134258;28;20061;-71
2022/10/10 09:17:26;;;;;;;3.92;2.20;;;;;;;;;;5118033;28;20439;-72
2022/10/10 09:20:20;;;;;;;4.45;2.10;;;;;;;;;;5127491;27;20348;-73
2022/10/10 09:23:15;;;;;;;3.80;2.13;;;;;;;;;;5134127;28;20023;-71
2022/10/10 09:26:02;;;;;;;3.22;2.30;;;;;;;;;;5133977;28;20023;-72
2022/10/10 09:29:04;;;;;;;3.60;2.22;;;;;;;;;;5133698;28;20011;-72
2022/10/10 09:31:52;;;;;;;4.00;2.40;;;;;;;;;;5134333;27;20015;-72
2022/10/10 09:34:40;;;;;;;4.20;2.38;;;;;;;;;;5137466;27;20332;-72
2022/10/10 09:37:32;;;;;;;5.40;2.78;;;;;;;;;;5137757;27;20019;-76
2022/10/10 09:40:27;;;;;;;4.25;2.25;;;;;;;;;;5137223;27;20030;-73
2022/10/10 09:43:15;;;;;;;7.60;2.90;;;;;;;;;;5136860;27;20050;-74
2022/10/10 09:46:01;;;;;;;2.67;2.13;;;;;;;;;;5137245;27;20031;-73
2022/10/10 09:48:47;;;;;;;4.20;2.60;;;;;;;;;;5136904;27;20102;-73
2022/10/10 09:51:33;;;;;;;6.18;2.40;;;;;;;;;;5138237;27;20572;-72
2022/10/10 09:54:19;;;;;;;7.85;2.70;;;;;;;;;;5136886;27;20055;-74
2022/10/10 09:57:09;;;;;;;4.45;2.13;;;;;;;;;;5137148;27;20034;-75
2022/10/10 09:59:54;;;;;;;5.72;2.55;;;;;;;;;;5137779;27;20098;-73
2022/10/10 10:02:40;;;;;;;5.95;2.38;;;;;;;;;;5136443;27;20023;-72
2022/10/10 10:05:26;;;;;;;5.38;2.40;;;;;;;;;;5137503;27;20173;-75
2022/10/10 10:08:29;;;;;;;6.40;2.35;;;;;;;;;;5136951;27;20106;-73
2022/10/10 10:11:27;;;;;;;4.45;2.35;;;;;;;;;;5122331;27;20023;-74
2022/10/10 10:14:39;;;;;;;6.68;2.50;;;;;;;;;;5122227;27;20095;-74
2022/10/10 10:17:25;;;;;;;6.32;2.58;;;;;;;;;;5136339;27;20072;-74
2022/10/10 10:20:29;;;;;;;4.97;2.58;;;;;;;;;;5137447;27;20065;-74
2022/10/10 10:23:25;;;;;;;4.70;2.35;;;;;;;;;;5137759;27;20102;-74
2022/10/10 10:26:14;;;;;;;5.68;2.55;;;;;;;;;;5122328;27;20111;-74
2022/10/10 10:28:59;;;;;;;3.45;2.50;;;;;;;;;;5136862;27;20372;-75
2022/10/10 10:31:53;;;;;;;5.00;2.30;;;;;;;;;;5137437;27;20019;-74
2022/10/10 10:34:57;;;;;;;4.85;2.42;;;;;;;;;;5122629;27;20015;-72
2022/10/10 10:37:54;;;;;;;5.35;2.70;;;;;;;;;;5137340;27;20110;-73
2022/10/10 10:40:47;;;;;;;4.22;2.45;;;;;;;;;;5136826;27;20090;-74
2022/10/10 10:43:51;;;;;;;5.15;2.35;;;;;;;;;;5137722;27;20083;-74
2022/10/10 10:46:53;;;;;;;9.15;3.25;;;;;;;;;;5137983;27;20015;-73
2022/10/10 10:49:49;;;;;;;7.93;2.63;;;;;;;;;;5122086;27;20083;-74
2022/10/10 10:53:07;;;;;;;6.70;2.95;;;;;;;;;;5136554;27;20019;-73
2022/10/10 10:55:58;;;;;;;7.30;2.80;;;;;;;;;;5104353;27;20070;-73
2022/10/10 10:58:59;;;;;;;4.63;2.97;;;;;;;;;;5137402;27;20019;-74
2022/10/10 11:01:45;;;;;;;5.13;2.60;;;;;;;;;;5137427;27;20402;-74
2022/10/10 11:04:42;;;;;;;4.25;2.60;;;;;;;;;;5136479;27;20023;-74
2022/10/10 11:07:33;;;;;;;8.07;3.10;;;;;;;;;;5137349;27;20072;-73
2022/10/10 11:10:29;;;;;;;6.70;2.90;;;;;;;;;;5136216;27;20079;-68
2022/10/10 11:13:33;;;;;;;6.18;2.90;;;;;;;;;;5135803;27;20027;-76
2022/10/10 11:16:20;;;;;;;5.10;2.60;;;;;;;;;;5136586;27;20046;-75
2022/10/10 11:19:09;;;;;;;4.75;2.47;;;;;;;;;;5122281;27;20022;-75
2022/10/10 11:21:58;;;;;;;2.92;2.60;;;;;;;;;;5137349;27;20328;-74
2022/10/10 11:24:50;;;;;;;5.88;2.40;;;;;;;;;;5135692;27;20047;-75
2022/10/10 11:27:45;;;;;;;5.82;2.70;;;;;;;;;;5136690;27;20030;-75
2022/10/10 11:30:34;;;;;;;6.03;2.75;;;;;;;;;;5120310;27;20058;-75
2022/10/10 11:33:22;;;;;;;6.68;3.20;;;;;;;;;;5122488;27;20015;-75
2022/10/10 11:36:16;;;;;;;6.20;3.17;;;;;;;;;;5123430;27;20348;-75
2022/10/10 11:39:11;;;;;;;6.55;3.03;;;;;;;;;;5135084;27;20545;-76
2022/10/10 11:42:04;;;;;;;8.90;3.03;;;;;;;;;;5121192;27;20109;-75
2022/10/10 11:45:03;;;;;;;7.78;3.25;;;;;;;;;;5120724;27;20035;-74
2022/10/10 11:48:07;;;;;;;6.93;3.45;;;;;;;;;;5121676;27;20320;-74
2022/10/10 11:50:56;;;;;;;9.63;3.33;;;;;;;;;;5121028;27;20095;-75
2022/10/10 11:53:44;;;;;;;11.52;3.40;;;;;;;;;;5134944;27;20027;-75
2022/10/10 11:56:29;;;;;;;9.60;3.63;;;;;;;;;;5134810;27;20058;-75
2022/10/10 11:59:24;;;;;;;3.75;2.95;;;;;;;;;;5135872;27;20102;-75
2022/10/10 12:02:20;;;;;;;8.93;3.05;;;;;;;;;;5120684;27;20051;-74
2022/10/10 12:05:06;;;;;;;7.47;2.97;;;;;;;;;;5134356;27;20027;-75
2022/10/10 12:08:10;;;;;;;5.75;3.45;;;;;;;;;;5136043;27;20088;-74
2022/10/10 12:10:59;;;;;;;5.88;3.33;;;;;;;;;;5120268;27;20019;-74
2022/10/10 12:13:55;;;;;;;5.75;3.30;;;;;;;;;;5135728;27;20328;-74
2022/10/10 12:16:41;;;;;;;5.38;3.40;;;;;;;;;;5120294;27;20023;-75
2022/10/10 12:19:27;;;;;;;10.73;3.67;;;;;;;;;;5135235;27;20033;-75
2022/10/10 12:22:31;;;;;;;9.82;3.28;;;;;;;;;;5120038;27;20023;-75
2022/10/10 12:25:36;;;;;;;9.48;3.25;;;;;;;;;;5135290;27;20030;-74
2022/10/10 12:28:24;;;;;;;5.63;3.05;;;;;;;;;;5120299;27;20027;-74
2022/10/10 12:31:10;;;;;;;7.85;3.50;;;;;;;;;;5135213;27;20111;-73
2022/10/10 12:33:55;;;;;;;6.70;3.45;;;;;;;;;;5135232;27;20066;-74
2022/10/10 12:36:43;;;;;;;6.90;3.20;;;;;;;;;;5135502;27;20397;-75
2022/10/10 12:39:28;;;;;;;4.70;3.03;;;;;;;;;;5120500;27;20374;-74
2022/10/10 12:42:43;;;;;;;7.65;3.55;;;;;;;;;;5134788;27;20091;-76
2022/10/10 12:45:29;;;;;;;9.25;3.70;;;;;;;;;;5073428;27;20019;-75
2022/10/10 12:48:18;;;;;;;7.07;3.40;;;;;;;;;;5120435;27;20079;-74
2022/10/10 12:51:04;;;;;;;4.63;3.10;;;;;;;;;;5119704;27;20015;-75
2022/10/10 12:53:56;;;;;;;8.00;3.60;;;;;;;;;;5134532;27;20007;-73
2022/10/10 12:56:42;;;;;;;9.32;3.40;;;;;;;;;;5133866;27;20026;-74
2022/10/10 12:59:28;;;;;;;6.70;3.67;;;;;;;;;;5134109;27;20019;-76
2022/10/10 13:02:24;;;;;;;7.07;3.20;;;;;;;;;;5120049;28;20099;-75
2022/10/10 13:05:16;;;;;;;4.07;2.85;;;;;;;;;;5120295;28;20027;-75
2022/10/10 13:08:03;;;;;;;6.05;3.13;;;;;;;;;;5133908;27;20076;-74
2022/10/10 13:11:01;;;;;;;7.93;3.35;;;;;;;;;;5119298;28;20019;-76
2022/10/10 13:13:48;;;;;;;4.72;3.17;;;;;;;;;;5134792;28;20348;-75
2022/10/10 13:16:41;;;;;;;6.40;3.30;;;;;;;;;;5135161;28;20026;-74
2022/10/10 13:19:27;;;;;;;10.10;3.60;;;;;;;;;;5119385;28;20053;-75
2022/10/10 13:22:13;;;;;;;5.68;3.03;;;;;;;;;;5133621;28;20038;-76
2022/10/10 13:24:59;;;;;;;8.65;3.70;;;;;;;;;;5134412;28;20038;-75
2022/10/10 13:27:45;;;;;;;5.60;3.47;;;;;;;;;;5133498;28;20084;-76
2022/10/10 13:30:30;;;;;;;5.88;3.28;;;;;;;;;;5133732;28;20159;-75
2022/10/10 13:33:18;;;;;;;11.32;3.67;;;;;;;;;;5134460;28;20023;-75
2022/10/10 13:36:15;;;;;;;6.90;3.78;;;;;;;;;;5118836;28;20030;-76
2022/10/10 13:39:01;;;;;;;16.52;4.10;;;;;;;;;;5134180;28;20034;-75
2022/10/10 13:41:47;;;;;;;11.25;3.70;;;;;;;;;;5134561;28;20095;-75
2022/10/10 13:44:45;;;;;;;11.82;3.35;;;;;;;;;;5133024;28;20027;-75
2022/10/10 13:47:50;;;;;;;7.20;3.53;;;;;;;;;;5133186;28;20019;-76
2022/10/10 13:50:42;;;;;;;9.85;3.15;;;;;;;;;;5134072;28;20367;-78
2022/10/10 13:53:28;;;;;;;7.82;3.45;;;;;;;;;;5133640;28;20099;-76
2022/10/10 13:56:17;;;;;;;9.63;3.40;;;;;;;;;;5118901;28;20046;-76
2022/10/10 13:59:07;;;;;;;8.30;3.20;;;;;;;;;;5133463;28;20450;-75
2022/10/10 14:01:57;;;;;;;8.88;3.20;;;;;;;;;;5132884;28;20034;-74
2022/10/10 14:04:51;;;;;;;11.75;3.30;;;;;;;;;;5133442;28;20164;-74
2022/10/10 14:07:36;;;;;;;8.70;3.47;;;;;;;;;;5133091;28;20102;-77
2022/10/10 14:10:26;;;;;;;12.07;3.65;;;;;;;;;;5133857;28;20363;-76
2022/10/10 14:13:14;;;;;;;9.88;3.75;;;;;;;;;;5134158;28;20474;-75
2022/10/10 14:16:11;;;;;;;6.38;3.92;;;;;;;;;;5134244;28;20027;-74
2022/10/10 14:18:56;;;;;;;12.90;4.03;;;;;;;;;;5134961;27;20095;-74
2022/10/10 14:21:42;;;;;;;8.30;3.78;;;;;;;;;;5137057;27;20454;-72
2022/10/10 14:24:28;;;;;;;8.68;3.22;;;;;;;;;;5136514;27;20027;-72
2022/10/10 14:27:16;;;;;;;8.52;3.75;;;;;;;;;;5137800;27;20027;-73
2022/10/10 14:30:01;;;;;;;8.05;3.90;;;;;;;;;;5122676;27;20532;-72
2022/10/10 14:32:47;;;;;;;5.95;3.47;;;;;;;;;;5137739;27;20019;-73
2022/10/10 14:35:33;;;;;;;6.13;3.38;;;;;;;;;;5122003;27;20512;-73
2022/10/10 14:38:18;;;;;;;7.15;3.47;;;;;;;;;;5137318;27;20033;-75
2022/10/10 14:41:04;;;;;;;7.05;3.50;;;;;;;;;;5136062;27;20021;-75
2022/10/10 14:43:50;;;;;;;7.10;3.58;;;;;;;;;;5137318;27;20015;-74
2022/10/10 14:46:36;;;;;;;11.93;4.20;;;;;;;;;;5136351;27;20394;-74
2022/10/10 14:49:21;;;;;;;11.10;3.83;;;;;;;;;;5137518;27;20035;-74
2022/10/10 14:52:07;;;;;;;15.73;4.00;;;;;;;;;;5136039;27;20016;-73
2022/10/10 14:54:53;;;;;;;7.53;3.78;;;;;;;;;;5135383;27;20458;-74
2022/10/10 14:57:39;;;;;;;8.35;3.30;;;;;;;;;;5136671;27;20024;-73
2022/10/10 15:00:25;;;;;;;6.85;3.33;;;;;;;;;;5136207;27;20409;-74
2022/10/10 15:03:11;;;;;;;9.65;3.53;;;;;;;;;;5135318;27;20083;-73
2022/10/10 15:05:56;;;;;;;10.93;3.53;;;;;;;;;;5135688;27;20019;-74
2022/10/10 15:08:42;;;;;;;7.75;3.42;;;;;;;;;;5121588;27;20063;-73
2022/10/10 15:11:28;;;;;;;7.15;3.72;;;;;;;;;;5135834;27;20027;-73
2022/10/10 15:14:13;;;;;;;11.43;3.80;;;;;;;;;;5137154;27;20511;-73
2022/10/10 15:16:59;;;;;;;10.73;3.92;;;;;;;;;;5121106;27;20023;-73
2022/10/10 15:19:44;;;;;;;6.60;3.55;;;;;;;;;;5135917;27;20025;-73
2022/10/10 15:22:30;;;;;;;9.20;4.32;;;;;;;;;;5135282;27;20011;-73
2022/10/10 15:25:15;;;;;;;7.55;4.40;;;;;;;;;;5136002;27;20363;-73
2022/10/10 15:28:02;;;;;;;16.23;6.20;;;;;;;;;;5136052;27;20026;-74
2022/10/10 15:30:47;;;;;;;38.45;15.75;;;;;;;;;;5135279;27;20106;-74
2022/10/10 15:33:33;;;;;;;21.85;8.05;;;;;;;;;;5135715;27;20339;-74
2022/10/10 15:36:19;;;;;;;15.90;4.78;;;;;;;;;;5120985;27;20019;-74
2022/10/10 15:39:05;;;;;;;17.67;6.30;;;;;;;;;;5135824;27;20015;-69
2022/10/10 15:41:50;;;;;;;13.02;4.57;;;;;;;;;;5135344;27;20012;-73
2022/10/10 15:44:37;;;;;;;12.55;5.05;;;;;;;;;;5134910;27;20034;-74
2022/10/10 15:47:22;;;;;;;19.17;5.53;;;;;;;;;;5135185;27;20030;-74
2022/10/10 15:50:09;;;;;;;20.02;5.53;;;;;;;;;;5136228;27;20011;-73
2022/10/10 15:52:54;;;;;;;20.33;5.25;;;;;;;;;;5134361;27;20042;-73
2022/10/10 15:55:41;;;;;;;13.77;4.90;;;;;;;;;;5134075;27;20478;-74
2022/10/10 15:58:27;;;;;;;12.85;4.63;;;;;;;;;;5134084;27;20476;-75
2022/10/10 16:01:17;;;;;;;13.30;4.97;;;;;;;;;;5135009;27;20025;-75
2022/10/10 16:04:03;;;;;;;13.00;4.15;;;;;;;;;;5133940;27;20118;-74
2022/10/10 16:06:49;;;;;;;15.38;4.95;;;;;;;;;;5135163;27;20106;-75
2022/10/10 16:09:34;;;;;;;14.70;4.82;;;;;;;;;;5120415;27;20027;-75
2022/10/10 16:12:20;;;;;;;10.63;4.32;;;;;;;;;;5134502;27;20016;-75
2022/10/10 16:15:06;;;;;;;10.80;4.90;;;;;;;;;;5133545;27;20075;-75
2022/10/10 16:17:51;;;;;;;13.57;4.70;;;;;;;;;;5120589;27;20096;-73
2022/10/10 16:20:38;;;;;;;13.70;4.80;;;;;;;;;;5135334;27;20303;-74
2022/10/10 16:23:24;;;;;;;11.32;4.28;;;;;;;;;;5135217;27;20019;-74
2022/10/10 16:26:11;;;;;;;12.30;4.32;;;;;;;;;;5134073;27;20030;-75
2022/10/10 16:28:58;;;;;;;11.15;4.45;;;;;;;;;;5120289;27;20026;-77
2022/10/10 16:31:44;;;;;;;8.05;4.45;;;;;;;;;;5119865;27;20084;-74
2022/10/10 16:34:29;;;;;;;13.40;4.38;;;;;;;;;;5134342;27;20060;-74
2022/10/10 16:37:15;;;;;;;8.40;4.20;;;;;;;;;;5119893;27;20106;-76
2022/10/10 16:40:00;;;;;;;10.45;4.45;;;;;;;;;;5133961;27;20368;-70
2022/10/10 16:42:46;;;;;;;9.48;5.05;;;;;;;;;;5133743;27;20034;-71